createdAt,value
2023-01-13T00:00:53.010Z,100998.63
2023-01-13T00:01:56.360Z,100999.53
2023-01-13T00:02:59.694Z,100998.66
2023-01-13T00:04:02.253Z,101003.86
2023-01-13T00:05:05.954Z,100990.86
2023-01-13T00:06:11.327Z,100993.43
2023-01-13T00:07:16.373Z,100990.83
2023-01-13T00:08:19.596Z,100993.43
2023-01-13T00:09:24.007Z,100989.99
2023-01-13T00:10:26.205Z,100986.53
2023-01-13T00:11:29.479Z,100992.59
2023-01-13T00:12:32.781Z,100984.80
2023-01-13T00:13:36.965Z,100988.27
2023-01-13T00:14:39.357Z,100988.23
2023-01-13T00:15:42.698Z,100989.09
2023-01-13T00:16:46.920Z,100995.19
2023-01-13T00:17:50.315Z,100993.45
2023-01-13T00:18:53.537Z,100993.45
2023-01-13T00:19:56.433Z,100988.25
2023-01-13T00:21:04.641Z,100995.19
2023-01-13T00:22:09.788Z,100998.66
2023-01-13T00:23:13.640Z,100996.92
2023-01-13T00:24:15.938Z,100994.32
2023-01-13T00:25:21.335Z,100984.82
2023-01-13T00:26:26.076Z,100992.59
2023-01-13T00:27:28.952Z,100987.39
2023-01-13T00:28:31.554Z,100981.33
2023-01-13T00:29:36.139Z,100989.99
2023-01-13T00:30:39.275Z,100995.19
2023-01-13T00:31:42.732Z,100997.81
2023-01-13T00:32:45.909Z,100989.98
2023-01-13T00:33:51.063Z,100992.61
2023-01-13T00:34:55.663Z,100987.40
2023-01-13T00:36:00.855Z,100991.74
2023-01-13T00:37:05.373Z,100988.28
2023-01-13T00:38:08.846Z,100993.47
2023-01-13T00:39:13.429Z,100995.20
2023-01-13T00:40:16.649Z,100991.75
2023-01-13T00:41:21.802Z,100992.61
2023-01-13T00:42:43.082Z,100986.54
2023-01-13T00:43:48.955Z,100977.03
2023-01-13T00:44:52.334Z,100974.41
2023-01-13T00:45:54.978Z,100983.95
2023-01-13T00:47:00.602Z,100983.95
2023-01-13T00:48:04.081Z,100980.48
2023-01-13T00:49:08.954Z,100984.81
2023-01-13T00:50:11.347Z,100986.54
2023-01-13T00:51:17.210Z,100979.61
2023-01-13T00:52:21.566Z,100982.22
2023-01-13T00:53:25.217Z,100977.88
2023-01-13T00:54:28.690Z,100977.89
2023-01-13T00:55:35.057Z,100985.69
2023-01-13T00:56:41.415Z,100987.41
2023-01-13T00:57:44.919Z,100983.08
2023-01-13T00:58:48.649Z,100983.05
2023-01-13T00:59:51.927Z,100983.08
2023-01-13T01:00:56.559Z,100979.59
2023-01-13T01:02:01.830Z,100986.52
2023-01-13T01:03:06.036Z,100978.75
2023-01-13T01:04:09.811Z,100983.08
2023-01-13T01:05:14.012Z,100978.75
2023-01-13T01:06:18.531Z,100983.95
2023-01-13T01:07:21.688Z,100983.06
2023-01-13T01:08:30.006Z,100981.33
2023-01-13T01:09:34.067Z,100986.52
2023-01-13T01:10:36.404Z,100982.19
2023-01-13T01:11:39.846Z,100988.23
2023-01-13T01:12:44.759Z,100981.30
2023-01-13T01:13:49.309Z,100982.16
2023-01-13T01:14:52.864Z,100982.20
2023-01-13T01:15:57.529Z,100980.46
2023-01-13T01:17:01.285Z,100978.72
2023-01-13T01:18:05.413Z,100984.79
2023-01-13T01:19:10.911Z,100979.59
2023-01-13T01:20:14.360Z,100977.86
2023-01-13T01:21:18.675Z,100972.66
2023-01-13T01:22:21.802Z,100966.63
2023-01-13T01:23:26.287Z,100977.02
2023-01-13T01:24:29.616Z,100978.75
2023-01-13T01:25:34.352Z,100975.29
2023-01-13T01:26:37.474Z,100975.26
2023-01-13T01:27:40.860Z,100972.66
2023-01-13T01:28:44.485Z,100976.13
2023-01-13T01:29:47.869Z,100964.86
2023-01-13T01:30:50.852Z,100961.39
2023-01-13T01:31:54.038Z,100963.99
2023-01-13T01:32:59.096Z,100964.86
2023-01-13T01:34:02.363Z,100964.86
2023-01-13T01:35:05.765Z,100964.86
2023-01-13T01:36:08.881Z,100963.13
2023-01-13T01:37:12.348Z,100959.66
2023-01-13T01:38:15.285Z,100962.22
2023-01-13T01:39:19.000Z,100952.69
2023-01-13T01:40:21.550Z,100957.89
2023-01-13T01:41:26.006Z,100958.72
2023-01-13T01:42:46.873Z,100956.16
2023-01-13T01:44:02.296Z,100949.22
2023-01-13T01:45:13.605Z,100951.82
2023-01-13T01:46:16.008Z,100946.66
2023-01-13T01:47:19.911Z,100942.36
2023-01-13T01:48:23.170Z,100947.56
2023-01-13T01:49:37.071Z,100941.46
2023-01-13T01:50:42.171Z,100942.33
2023-01-13T01:51:47.203Z,100939.73
2023-01-13T01:52:52.319Z,100937.99
2023-01-13T01:53:56.484Z,100934.48
2023-01-13T01:55:02.598Z,100939.69
2023-01-13T01:56:06.189Z,100935.35
2023-01-13T01:57:12.376Z,100933.62
2023-01-13T01:58:16.565Z,100927.59
2023-01-13T01:59:21.337Z,100939.73
2023-01-13T02:00:26.060Z,100941.46
2023-01-13T02:01:30.195Z,100943.20
2023-01-13T02:02:32.855Z,100939.73
2023-01-13T02:03:38.192Z,100935.39
2023-01-13T02:04:43.379Z,100928.45
2023-01-13T02:05:45.620Z,100938.86
2023-01-13T02:06:49.762Z,100926.73
2023-01-13T02:07:54.962Z,100930.20
2023-01-13T02:08:59.904Z,100930.23
2023-01-13T02:10:04.954Z,100930.23
2023-01-13T02:11:09.123Z,100931.96
2023-01-13T02:12:29.372Z,100934.53
2023-01-13T02:13:32.751Z,100928.46
2023-01-13T02:14:40.488Z,100934.56
2023-01-13T02:15:46.166Z,100931.09
2023-01-13T02:16:55.090Z,100926.77
2023-01-13T02:18:09.421Z,100924.16
2023-01-13T02:19:22.993Z,100931.96
2023-01-13T02:20:31.278Z,100922.42
2023-01-13T02:21:40.442Z,100919.80
2023-01-13T02:23:01.822Z,100922.39
2023-01-13T02:24:41.226Z,100917.20
2023-01-13T02:25:49.743Z,100924.16
2023-01-13T02:27:14.876Z,100923.27
2023-01-13T02:28:19.963Z,100926.77
2023-01-13T02:29:59.048Z,100929.38
2023-01-13T02:31:26.425Z,100928.52
2023-01-13T02:32:31.571Z,100928.52
2023-01-13T02:33:42.248Z,100927.63
2023-01-13T02:36:02.979Z,100921.56
2023-01-13T02:37:16.228Z,100930.23
2023-01-13T02:38:21.474Z,100928.50
2023-01-13T02:39:27.898Z,100938.02
2023-01-13T02:40:51.563Z,100928.52
2023-01-13T02:42:16.584Z,100929.36
2023-01-13T02:43:41.718Z,100932.83
2023-01-13T02:44:46.374Z,100927.63
2023-01-13T02:46:02.770Z,100918.09
2023-01-13T02:47:10.241Z,100932.80
2023-01-13T02:48:15.691Z,100929.36
2023-01-13T02:49:36.322Z,100924.16
2023-01-13T02:50:42.124Z,100930.20
2023-01-13T02:51:46.676Z,100926.77
2023-01-13T02:52:56.137Z,100925.86
2023-01-13T02:54:01.536Z,100914.59
2023-01-13T02:55:06.803Z,100924.13
2023-01-13T02:56:14.170Z,100923.26
2023-01-13T02:57:18.771Z,100927.55
2023-01-13T02:58:23.061Z,100923.22
2023-01-13T02:59:28.337Z,100931.89
2023-01-13T03:00:32.049Z,100934.48
2023-01-13T03:01:38.023Z,100921.48
2023-01-13T03:02:41.495Z,100922.39
2023-01-13T03:03:43.989Z,100924.13
2023-01-13T03:04:52.706Z,100919.79
2023-01-13T03:05:57.929Z,100926.72
2023-01-13T03:07:08.432Z,100920.62
2023-01-13T03:08:17.469Z,100921.52
2023-01-13T03:09:25.785Z,100925.86
2023-01-13T03:10:31.175Z,100918.93
2023-01-13T03:11:39.057Z,100928.46
2023-01-13T03:12:48.101Z,100915.50
2023-01-13T03:13:53.692Z,100926.77
2023-01-13T03:15:01.698Z,100924.16
2023-01-13T03:16:10.292Z,100914.63
2023-01-13T03:17:34.729Z,100911.13
2023-01-13T03:18:45.736Z,100911.99
2023-01-13T03:19:53.429Z,100909.40
2023-01-13T03:21:08.409Z,100909.39
2023-01-13T03:22:17.346Z,100911.17
2023-01-13T03:23:22.736Z,100923.30
2023-01-13T03:24:40.036Z,100909.44
2023-01-13T03:25:50.675Z,100919.83
2023-01-13T03:26:58.835Z,100914.63
2023-01-13T03:28:06.835Z,100911.17
2023-01-13T03:29:26.843Z,100907.66
2023-01-13T03:30:33.068Z,100914.63
2023-01-13T03:31:39.608Z,100905.93
2023-01-13T03:32:43.925Z,100905.93
2023-01-13T03:33:51.842Z,100908.53
2023-01-13T03:34:58.882Z,100918.06
2023-01-13T03:36:06.706Z,100917.20
2023-01-13T03:37:11.212Z,100912.90
2023-01-13T03:38:15.864Z,100912.00
2023-01-13T03:39:19.999Z,100911.98
2023-01-13T03:40:25.384Z,100918.06
2023-01-13T03:41:30.677Z,100912.86
2023-01-13T03:42:35.953Z,100907.66
2023-01-13T03:43:59.624Z,100910.30
2023-01-13T03:45:06.571Z,100906.83
2023-01-13T03:46:12.607Z,100906.80
2023-01-13T03:47:20.043Z,100912.03
2023-01-13T03:48:24.708Z,100906.83
2023-01-13T03:49:39.029Z,100911.13
2023-01-13T03:50:44.033Z,100917.19
2023-01-13T03:51:50.925Z,100914.59
2023-01-13T03:52:56.171Z,100916.29
2023-01-13T03:54:02.587Z,100920.63
2023-01-13T03:55:09.981Z,100914.59
2023-01-13T03:56:17.239Z,100915.42
2023-01-13T03:57:22.551Z,100912.82
2023-01-13T03:58:28.945Z,100921.48
2023-01-13T03:59:35.192Z,100917.16
2023-01-13T04:00:40.484Z,100920.66
2023-01-13T04:01:48.866Z,100917.20
2023-01-13T04:02:54.251Z,100920.66
2023-01-13T04:03:59.353Z,100927.63
2023-01-13T04:05:04.803Z,100917.20
2023-01-13T04:06:17.568Z,100918.06
2023-01-13T04:07:39.929Z,100921.53
2023-01-13T04:08:44.340Z,100925.00
2023-01-13T04:09:53.116Z,100919.75
2023-01-13T04:11:00.237Z,100922.35
2023-01-13T04:12:10.267Z,100924.95
2023-01-13T04:13:15.718Z,100914.55
2023-01-13T04:14:18.934Z,100915.37
2023-01-13T04:15:24.526Z,100916.27
2023-01-13T04:16:27.796Z,100911.98
2023-01-13T04:17:32.026Z,100908.53
2023-01-13T04:18:37.427Z,100918.92
2023-01-13T04:19:40.760Z,100908.53
2023-01-13T04:20:45.784Z,100908.53
2023-01-13T04:21:50.155Z,100909.44
2023-01-13T04:22:54.248Z,100906.80
2023-01-13T04:23:58.416Z,100911.13
2023-01-13T04:25:01.781Z,100910.26
2023-01-13T04:26:06.463Z,100911.98
2023-01-13T04:27:08.686Z,100916.33
2023-01-13T04:28:14.942Z,100912.86
2023-01-13T04:29:21.242Z,100902.41
2023-01-13T04:30:25.790Z,100905.92
2023-01-13T04:31:28.936Z,100910.27
2023-01-13T04:32:35.305Z,100914.59
2023-01-13T04:33:38.813Z,100917.16
2023-01-13T04:34:42.935Z,100908.47
2023-01-13T04:35:48.035Z,100905.83
2023-01-13T04:36:51.734Z,100906.79
2023-01-13T04:37:55.886Z,100905.02
2023-01-13T04:38:59.566Z,100901.59
2023-01-13T04:40:01.930Z,100905.92
2023-01-13T04:41:05.960Z,100902.47
2023-01-13T04:42:09.257Z,100899.00
2023-01-13T04:43:12.446Z,100896.40
2023-01-13T04:44:17.205Z,100899.00
2023-01-13T04:45:23.353Z,100896.39
2023-01-13T04:46:26.928Z,100897.30
2023-01-13T04:47:30.219Z,100896.44
2023-01-13T04:48:33.685Z,100897.30
2023-01-13T04:49:37.029Z,100901.64
2023-01-13T04:50:39.492Z,100898.13
2023-01-13T04:51:42.640Z,100902.47
2023-01-13T04:52:47.336Z,100909.39
2023-01-13T04:53:52.199Z,100909.39
2023-01-13T04:54:55.587Z,100906.80
2023-01-13T04:56:01.870Z,100905.97
2023-01-13T04:57:06.177Z,100902.50
2023-01-13T04:58:10.802Z,100912.90
2023-01-13T04:59:15.649Z,100908.56
2023-01-13T05:00:20.530Z,100918.09
2023-01-13T05:01:26.026Z,100913.73
2023-01-13T05:02:29.533Z,100912.86
2023-01-13T05:03:32.820Z,100916.33
2023-01-13T05:04:35.980Z,100914.59
2023-01-13T05:05:44.104Z,100915.50
2023-01-13T05:06:47.411Z,100918.06
2023-01-13T05:07:50.713Z,100914.59
2023-01-13T05:08:53.893Z,100918.93
2023-01-13T05:09:56.984Z,100918.06
2023-01-13T05:11:04.040Z,100906.75
2023-01-13T05:12:26.044Z,100913.72
2023-01-13T05:13:46.676Z,100917.19
2023-01-13T05:15:08.364Z,100919.79
2023-01-13T05:16:31.060Z,100916.29
2023-01-13T05:17:34.886Z,100921.48
2023-01-13T05:18:37.572Z,100918.83
2023-01-13T05:19:42.640Z,100921.48
2023-01-13T05:20:50.163Z,100913.67
2023-01-13T05:22:12.216Z,100919.75
2023-01-13T05:23:34.085Z,100926.67
2023-01-13T05:24:57.238Z,100926.68
2023-01-13T05:26:00.642Z,100920.62
2023-01-13T05:27:04.358Z,100917.14
2023-01-13T05:28:08.170Z,100917.16
2023-01-13T05:29:10.531Z,100913.69
2023-01-13T05:30:14.753Z,100921.56
2023-01-13T05:31:18.203Z,100922.39
2023-01-13T05:32:22.406Z,100916.33
2023-01-13T05:33:26.121Z,100930.16
2023-01-13T05:34:30.873Z,100932.75
2023-01-13T05:35:34.277Z,100928.41
2023-01-13T05:36:37.572Z,100924.95
2023-01-13T05:37:41.084Z,100930.97
2023-01-13T05:38:44.408Z,100929.23
2023-01-13T05:40:05.630Z,100933.61
2023-01-13T05:41:26.697Z,100926.67
2023-01-13T05:42:50.485Z,100927.51
2023-01-13T05:43:53.443Z,100932.70
2023-01-13T05:44:58.091Z,100930.97
2023-01-13T05:46:08.322Z,100923.22
2023-01-13T05:47:11.737Z,100927.55
2023-01-13T05:48:18.722Z,100921.44
2023-01-13T05:49:22.018Z,100918.01
2023-01-13T05:50:25.747Z,100918.87
2023-01-13T05:51:28.215Z,100919.70
2023-01-13T05:52:31.748Z,100917.97
2023-01-13T05:53:34.379Z,100919.75
2023-01-13T05:54:38.726Z,100915.41
2023-01-13T05:55:45.055Z,100921.44
2023-01-13T05:56:48.654Z,100924.89
2023-01-13T05:57:53.732Z,100924.84
2023-01-13T05:58:56.936Z,100930.09
2023-01-13T05:59:59.277Z,100924.91
2023-01-13T06:01:04.100Z,100929.22
2023-01-13T06:02:07.748Z,100927.44
2023-01-13T06:03:11.257Z,100929.19
2023-01-13T06:04:14.633Z,100930.95
2023-01-13T06:05:17.415Z,100928.37
2023-01-13T06:06:20.930Z,100933.57
2023-01-13T06:07:24.434Z,100931.83
2023-01-13T06:08:28.355Z,100934.43
2023-01-13T06:09:31.351Z,100945.70
2023-01-13T06:10:36.573Z,100943.10
2023-01-13T06:11:41.177Z,100935.25
2023-01-13T06:12:44.572Z,100936.98
2023-01-13T06:13:47.677Z,100940.45
2023-01-13T06:14:51.894Z,100944.83
2023-01-13T06:15:58.768Z,100941.37
2023-01-13T06:17:02.133Z,100945.66
2023-01-13T06:18:05.559Z,100940.45
2023-01-13T06:19:08.954Z,100942.16
2023-01-13T06:20:14.483Z,100937.84
2023-01-13T06:21:17.292Z,100932.65
2023-01-13T06:22:33.664Z,100940.44
2023-01-13T06:23:40.118Z,100934.31
2023-01-13T06:24:43.200Z,100939.50
2023-01-13T06:26:08.695Z,100933.42
2023-01-13T06:27:13.352Z,100936.89
2023-01-13T06:28:17.529Z,100936.91
2023-01-13T06:29:20.911Z,100938.70
2023-01-13T06:30:26.294Z,100942.13
2023-01-13T06:31:31.036Z,100937.83
2023-01-13T06:32:35.587Z,100940.44
2023-01-13T06:33:43.805Z,100947.33
2023-01-13T06:34:49.158Z,100947.37
2023-01-13T06:35:57.497Z,100947.37
2023-01-13T06:37:01.131Z,100942.11
2023-01-13T06:38:06.400Z,100946.43
2023-01-13T06:39:11.047Z,100951.57
2023-01-13T06:40:16.368Z,100944.58
2023-01-13T06:41:23.060Z,100940.28
2023-01-13T06:42:45.898Z,100935.11
2023-01-13T06:43:50.241Z,100935.17
2023-01-13T06:44:53.674Z,100934.36
2023-01-13T06:45:57.481Z,100936.09
2023-01-13T06:47:00.914Z,100935.23
2023-01-13T06:48:04.314Z,100933.45
2023-01-13T06:49:06.932Z,100931.76
2023-01-13T06:50:11.158Z,100935.17
2023-01-13T06:51:13.619Z,100936.88
2023-01-13T06:52:16.194Z,100929.88
2023-01-13T06:53:19.203Z,100926.44
2023-01-13T06:54:22.671Z,100930.76
2023-01-13T06:55:25.962Z,100929.02
2023-01-13T06:56:32.135Z,100922.88
2023-01-13T06:57:35.271Z,100931.61
2023-01-13T06:58:41.017Z,100940.36
2023-01-13T06:59:43.858Z,100940.38
2023-01-13T07:00:48.457Z,100937.75
2023-01-13T07:01:51.825Z,100927.29
2023-01-13T07:02:55.188Z,100931.63
2023-01-13T07:03:58.703Z,100933.42
2023-01-13T07:05:02.862Z,100938.55
2023-01-13T07:06:05.519Z,100938.55
2023-01-13T07:07:09.368Z,100931.61
2023-01-13T07:08:12.728Z,100941.17
2023-01-13T07:09:16.030Z,100941.17
2023-01-13T07:10:21.300Z,100931.62
2023-01-13T07:11:42.993Z,100937.68
2023-01-13T10:48:14.820Z,100871.96
2023-01-13T10:49:29.449Z,100863.20
2023-01-13T10:50:35.148Z,100865.88
2023-01-13T10:51:41.479Z,100862.32
2023-01-13T10:52:48.347Z,100867.52
2023-01-13T10:53:53.290Z,100865.74
2023-01-13T10:54:57.528Z,100876.17
2023-01-13T10:56:06.386Z,100868.47
2023-01-13T10:57:16.250Z,100870.91
2023-01-13T10:58:20.670Z,100871.63
2023-01-13T10:59:26.585Z,100881.32
2023-01-13T11:00:33.257Z,100874.42
2023-01-13T11:01:37.603Z,100872.73
2023-01-13T11:02:41.239Z,100880.69
2023-01-13T11:03:46.994Z,100872.73
2023-01-13T11:06:24.249Z,100876.89
2023-01-13T11:07:35.523Z,100875.23
2023-01-13T11:08:45.071Z,100875.38
2023-01-13T11:09:49.728Z,100876.41
2023-01-13T11:10:54.309Z,100871.47
2023-01-13T11:11:59.872Z,100874.06
2023-01-13T11:13:06.216Z,100863.49
2023-01-13T11:16:03.190Z,100863.27
2023-01-13T11:17:17.072Z,100864.21
2023-01-13T11:18:22.978Z,100866.86
2023-01-13T11:19:28.054Z,100869.53
2023-01-13T11:20:35.326Z,100867.83
2023-01-13T11:21:43.748Z,100867.72
2023-01-13T11:22:50.250Z,100865.05
2023-01-13T11:24:11.226Z,100867.70
2023-01-13T11:25:18.000Z,100861.02
2023-01-13T11:26:30.430Z,100856.69
2023-01-13T11:27:40.652Z,100859.30
2023-01-13T11:29:02.640Z,100860.95
2023-01-13T11:30:22.661Z,100859.38
2023-01-13T11:31:34.429Z,100858.48
2023-01-13T11:32:40.103Z,100861.77
2023-01-13T11:33:48.199Z,100865.39
2023-01-13T11:34:53.587Z,100861.89
2023-01-13T11:36:07.117Z,100863.46
2023-01-13T11:37:12.178Z,100858.98
2023-01-13T11:38:31.257Z,100859.89
2023-01-13T11:39:47.606Z,100871.09
2023-01-13T11:40:51.738Z,100858.78
2023-01-13T11:42:25.226Z,100859.69
2023-01-13T11:43:42.514Z,100860.66
2023-01-13T11:44:47.083Z,100862.39
2023-01-13T11:45:54.219Z,100863.27
2023-01-13T11:46:57.743Z,100853.54
2023-01-13T11:48:04.929Z,100853.77
2023-01-13T11:49:11.528Z,100851.15
2023-01-13T11:50:17.968Z,100856.52
2023-01-13T11:51:23.546Z,100852.34
2023-01-13T11:52:28.937Z,100850.54
2023-01-13T11:53:33.695Z,100853.97
2023-01-13T11:54:38.967Z,100845.22
2023-01-13T11:55:44.046Z,100855.48
2023-01-13T11:56:52.199Z,100852.88
2023-01-13T11:58:10.479Z,100846.73
2023-01-13T11:59:21.358Z,100851.90
2023-01-13T12:00:29.289Z,100849.36
2023-01-13T12:01:40.016Z,100848.66
2023-01-13T12:02:49.098Z,100846.83
2023-01-13T12:04:02.902Z,100843.32
2023-01-13T12:05:08.080Z,100848.51
2023-01-13T12:06:15.270Z,100840.00
2023-01-13T12:07:23.051Z,100839.81
2023-01-13T12:08:26.333Z,100838.90
2023-01-13T12:09:31.602Z,100835.53
2023-01-13T12:10:53.168Z,100842.39
2023-01-13T12:12:23.355Z,100834.59
2023-01-13T12:13:32.549Z,100837.23
2023-01-13T12:14:37.944Z,100841.63
2023-01-13T12:15:46.258Z,100834.75
2023-01-13T12:16:51.136Z,100839.91
2023-01-13T12:18:11.702Z,100839.09
2023-01-13T12:19:21.647Z,100841.83
2023-01-13T12:20:35.838Z,100847.17
2023-01-13T12:21:44.712Z,100847.11
2023-01-13T12:22:54.961Z,100846.06
2023-01-13T12:24:13.047Z,100845.20
2023-01-13T12:25:24.276Z,100851.38
2023-01-13T12:26:28.453Z,100847.06
2023-01-13T12:27:35.575Z,100847.98
2023-01-13T12:28:42.991Z,100847.05
2023-01-13T12:29:48.112Z,100850.54
2023-01-13T12:30:53.492Z,100855.84
2023-01-13T12:31:57.262Z,100851.41
2023-01-13T12:33:01.854Z,100854.75
2023-01-13T12:34:23.129Z,100852.84
2023-01-13T12:35:28.408Z,100852.77
2023-01-13T12:36:49.462Z,100851.06
2023-01-13T12:38:06.463Z,100854.49
2023-01-13T12:39:21.747Z,100849.64
2023-01-13T12:40:34.177Z,100846.30
2023-01-13T12:42:06.458Z,100844.54
2023-01-13T12:43:41.616Z,100849.78
2023-01-13T12:45:02.466Z,100850.48
2023-01-13T12:46:22.681Z,100845.12
2023-01-13T12:47:26.797Z,100851.98
2023-01-13T12:48:51.428Z,100859.97
2023-01-13T12:49:56.482Z,100853.06
2023-01-13T12:51:01.205Z,100854.95
2023-01-13T12:52:08.897Z,100853.23
2023-01-13T12:53:36.451Z,100854.98
2023-01-13T12:54:42.495Z,100855.05
2023-01-13T12:55:44.832Z,100855.85
2023-01-13T12:56:48.743Z,100853.23
2023-01-13T12:57:57.921Z,100854.81
2023-01-13T12:59:22.075Z,100856.70
2023-01-13T13:00:28.500Z,100856.69
2023-01-13T13:01:38.627Z,100861.08
2023-01-13T13:02:43.684Z,100862.80
2023-01-13T13:04:06.025Z,100858.30
2023-01-13T13:05:25.444Z,100863.38
2023-01-13T13:06:30.628Z,100866.11
2023-01-13T13:07:36.737Z,100853.09
2023-01-13T13:09:03.320Z,100860.84
2023-01-13T13:10:06.927Z,100853.94
2023-01-13T13:11:32.185Z,100854.70
2023-01-13T13:12:56.758Z,100852.09
2023-01-13T13:14:01.212Z,100856.22
2023-01-13T13:15:06.296Z,100858.16
2023-01-13T13:16:28.013Z,100865.08
2023-01-13T13:17:33.344Z,100867.64
2023-01-13T13:18:35.916Z,100857.23
2023-01-13T13:19:40.051Z,100858.26
2023-01-13T13:46:46.997Z,100860.00
2023-01-13T13:47:51.175Z,100847.81
2023-01-13T13:48:55.980Z,100851.27
2023-01-13T13:50:02.312Z,100859.03
2023-01-13T13:51:06.821Z,100850.30
2023-01-13T13:52:22.287Z,100855.62
2023-01-13T13:53:33.776Z,100862.58
2023-01-13T13:54:41.755Z,100860.74
2023-01-13T13:55:56.314Z,100848.66
2023-01-13T13:57:00.085Z,100854.97
2023-01-13T13:58:02.630Z,100857.73
2023-01-13T13:59:06.142Z,100850.84
2023-01-13T14:00:11.976Z,100849.09
2023-01-13T14:01:28.612Z,100857.75
2023-01-13T14:02:33.874Z,100856.02
2023-01-13T14:03:38.920Z,100848.20
2023-01-13T14:04:42.274Z,100847.50
2023-01-13T14:06:02.480Z,100849.22
2023-01-13T14:07:20.171Z,100855.20
2023-01-13T14:08:24.800Z,100847.48
2023-01-13T14:09:29.648Z,100850.87
2023-01-13T14:10:34.676Z,100855.19
2023-01-13T14:11:38.851Z,100849.05
2023-01-13T14:12:42.260Z,100849.04
2023-01-13T14:13:45.335Z,100858.70
2023-01-13T14:14:49.808Z,100857.75
2023-01-13T14:15:58.771Z,100856.93
2023-01-13T14:17:03.483Z,100863.98
2023-01-13T14:18:15.546Z,100861.27
2023-01-13T14:19:21.137Z,100861.31
2023-01-13T14:20:24.742Z,100854.33
2023-01-13T14:21:28.461Z,100857.03
2023-01-13T14:22:32.767Z,100860.56
2023-01-13T14:23:35.930Z,100856.34
2023-01-13T14:24:40.534Z,100855.39
2023-01-13T14:25:49.218Z,100854.63
2023-01-13T14:26:53.922Z,100849.41
2023-01-13T14:27:58.365Z,100852.85
2023-01-13T14:29:03.634Z,100854.51
2023-01-13T14:30:08.611Z,100855.36
2023-01-13T14:31:13.806Z,100851.98
2023-01-13T14:32:20.240Z,100854.57
2023-01-13T14:33:26.620Z,100858.14
2023-01-13T14:34:31.926Z,100858.95
2023-01-13T14:35:37.941Z,100858.84
2023-01-13T14:36:44.048Z,100860.77
2023-01-13T14:37:48.905Z,100859.84
2023-01-13T14:39:06.939Z,100867.65
2023-01-13T14:40:28.474Z,100861.53
2023-01-13T14:41:36.749Z,100861.61
2023-01-13T14:42:41.889Z,100862.58
2023-01-13T14:43:47.204Z,100861.71
2023-01-13T14:44:52.655Z,100864.35
2023-01-13T14:46:01.144Z,100860.87
2023-01-13T14:47:07.497Z,100866.08
2023-01-13T14:48:10.872Z,100863.47
2023-01-13T14:49:21.930Z,100869.53
2023-01-13T14:50:30.087Z,100866.08
2023-01-13T14:51:32.471Z,100871.27
2023-01-13T14:52:37.571Z,100872.23
2023-01-13T14:53:43.179Z,100873.06
2023-01-13T14:54:50.934Z,100857.48
2023-01-13T14:55:54.253Z,100863.70
2023-01-13T14:57:17.679Z,100865.42
2023-01-13T14:58:22.954Z,100863.68
2023-01-13T14:59:34.543Z,100865.36
2023-01-13T15:00:38.852Z,100856.67
2023-01-13T15:01:42.366Z,100858.47
2023-01-13T15:02:55.806Z,100856.73
2023-01-13T15:04:20.101Z,100855.03
2023-01-13T15:05:26.372Z,100850.60
2023-01-13T15:06:29.695Z,100852.41
2023-01-13T15:07:33.816Z,100858.53
2023-01-13T15:08:39.003Z,100851.56
2023-01-13T15:09:44.465Z,100850.69
2023-01-13T15:10:54.831Z,100855.88
2023-01-13T15:12:03.714Z,100854.08
2023-01-13T15:13:06.695Z,100858.35
2023-01-13T15:14:11.568Z,100850.45
2023-01-13T15:15:19.558Z,100852.16
2023-01-13T15:16:25.732Z,100850.52
2023-01-13T15:17:29.185Z,100852.34
2023-01-13T15:18:32.168Z,100845.48
2023-01-13T15:19:36.929Z,100851.46
2023-01-13T15:20:41.279Z,100854.13
2023-01-13T15:21:44.552Z,100854.90
2023-01-13T15:22:49.568Z,100856.65
2023-01-13T15:23:56.253Z,100860.13
2023-01-13T15:25:00.584Z,100853.17
2023-01-13T15:26:05.826Z,100853.17
2023-01-13T15:27:10.236Z,100853.34
2023-01-13T15:28:18.795Z,100848.11
2023-01-13T15:29:24.404Z,100861.99
2023-01-13T15:30:29.458Z,100861.90
2023-01-13T15:31:32.917Z,100866.28
2023-01-13T15:32:36.534Z,100865.42
2023-01-13T15:33:40.043Z,100867.16
2023-01-13T15:34:44.786Z,100867.17
2023-01-13T15:35:50.912Z,100865.45
2023-01-13T15:36:54.080Z,100858.50
2023-01-13T15:37:58.134Z,100857.56
2023-01-13T15:39:01.638Z,100860.25
2023-01-13T15:40:07.139Z,100855.05
2023-01-13T15:41:09.691Z,100852.42
2023-01-13T15:42:31.036Z,100858.50
2023-01-13T15:43:51.693Z,100860.25
2023-01-13T15:45:12.323Z,100861.08
2023-01-13T15:46:36.759Z,100862.69
2023-01-13T15:47:41.061Z,100867.91
2023-01-13T15:48:45.505Z,100855.89
2023-01-13T15:49:50.689Z,100854.17
2023-01-13T15:50:55.458Z,100859.33
2023-01-13T15:51:59.707Z,100861.90
2023-01-13T15:53:05.272Z,100857.53
2023-01-13T15:54:13.076Z,100864.50
2023-01-13T15:55:16.555Z,100862.72
2023-01-13T15:56:20.692Z,100868.70
2023-01-13T15:57:29.580Z,100860.08
2023-01-13T15:58:35.959Z,100870.52
2023-01-13T15:59:40.674Z,100862.64
2023-01-13T16:00:44.082Z,100879.12
2023-01-13T16:01:48.297Z,100870.51
2023-01-13T16:02:51.818Z,100868.78
2023-01-13T16:03:56.565Z,100865.31
2023-01-13T16:05:00.167Z,100866.98
2023-01-13T16:06:03.841Z,100862.72
2023-01-13T16:07:09.325Z,100857.50
2023-01-13T16:08:18.471Z,100868.90
2023-01-13T16:09:21.911Z,100857.65
2023-01-13T16:10:27.174Z,100858.48
